createdAt,value
2023-02-05T00:01:57.202Z,48.00
2023-02-05T00:04:24.458Z,46.57
2023-02-05T00:06:51.635Z,46.87
2023-02-05T00:09:18.679Z,54.47
2023-02-05T00:11:45.665Z,47.77
2023-02-05T00:14:12.838Z,42.73
2023-02-05T00:16:40.018Z,43.97
2023-02-05T00:19:07.079Z,41.63
2023-02-05T00:21:34.246Z,43.77
2023-02-05T00:24:01.278Z,45.90
2023-02-05T00:26:28.355Z,38.27
2023-02-05T00:28:55.481Z,39.70
2023-02-05T00:31:23.723Z,37.90
2023-02-05T00:33:52.319Z,41.07
2023-02-05T00:36:21.235Z,36.37
2023-02-05T00:38:48.783Z,34.13
2023-02-05T00:41:16.807Z,42.33
2023-02-05T00:43:44.475Z,39.87
2023-02-05T00:46:13.284Z,42.87
2023-02-05T00:48:41.591Z,36.57
2023-02-05T00:51:10.088Z,35.50
2023-02-05T00:53:37.536Z,31.70
2023-02-05T00:56:05.312Z,29.10
2023-02-05T00:58:32.636Z,22.77
2023-02-05T01:00:59.769Z,22.87
2023-02-05T01:03:26.847Z,23.90
2023-02-05T01:05:53.903Z,23.40
2023-02-05T01:08:20.983Z,23.50
2023-02-05T01:10:50.343Z,20.77
2023-02-05T01:13:19.193Z,19.87
2023-02-05T01:15:46.834Z,24.20
2023-02-05T01:18:14.387Z,22.27
2023-02-05T01:20:42.828Z,16.93
2023-02-05T01:23:11.585Z,15.93
2023-02-05T01:25:39.294Z,17.77
2023-02-05T01:28:07.033Z,16.20
2023-02-05T01:30:35.631Z,16.57
2023-02-05T01:33:03.617Z,16.33
2023-02-05T01:35:30.770Z,16.57
2023-02-05T01:37:57.849Z,15.73
2023-02-05T01:40:24.946Z,15.67
2023-02-05T01:42:52.060Z,18.83
2023-02-05T01:45:22.018Z,13.90
2023-02-05T01:47:56.188Z,15.77
2023-02-05T01:50:40.347Z,16.67
2023-02-05T01:53:19.045Z,18.77
2023-02-05T01:55:54.226Z,15.80
2023-02-05T01:58:21.643Z,14.53
2023-02-05T02:00:48.966Z,13.03
2023-02-05T02:03:16.342Z,17.13
2023-02-05T02:05:43.501Z,13.00
2023-02-05T02:08:13.524Z,13.03
2023-02-05T02:10:43.559Z,14.63
2023-02-05T02:13:12.514Z,12.80
2023-02-05T02:15:41.203Z,12.27
2023-02-05T02:18:27.350Z,13.33
2023-02-05T02:21:13.394Z,13.70
2023-02-05T02:24:36.881Z,10.40
2023-02-05T02:27:18.645Z,10.27
2023-02-05T02:29:58.867Z,13.20
2023-02-05T02:33:04.319Z,10.97
2023-02-05T02:35:57.749Z,11.93
2023-02-05T02:39:01.114Z,12.03
2023-02-05T02:42:02.255Z,11.40
2023-02-05T02:44:44.803Z,11.53
2023-02-05T02:47:26.889Z,11.53
2023-02-05T02:50:10.354Z,8.63
2023-02-05T02:52:44.038Z,9.57
2023-02-05T02:55:15.807Z,9.20
2023-02-05T02:57:45.793Z,11.43
2023-02-05T03:00:20.402Z,7.03
2023-02-05T03:02:50.396Z,9.60
2023-02-05T03:05:21.738Z,12.20
2023-02-05T03:07:56.984Z,9.43
2023-02-05T03:10:44.510Z,8.63
2023-02-05T03:13:12.530Z,10.73
2023-02-05T03:15:43.865Z,10.37
2023-02-05T03:18:13.906Z,9.97
2023-02-05T03:21:16.698Z,12.77
2023-02-05T03:23:44.374Z,8.83
2023-02-05T03:26:33.016Z,9.50
2023-02-05T03:29:04.974Z,10.73
2023-02-05T03:32:00.176Z,13.03
2023-02-05T03:34:51.652Z,13.63
2023-02-05T03:37:27.572Z,15.60
2023-02-05T03:40:06.215Z,23.00
2023-02-05T03:43:12.768Z,26.23
2023-02-05T03:46:27.387Z,34.70
2023-02-05T03:49:05.284Z,30.30
2023-02-05T03:51:48.646Z,26.53
2023-02-05T03:54:26.262Z,20.87
2023-02-05T03:57:21.440Z,14.67
2023-02-05T03:59:50.232Z,20.57
2023-02-05T04:02:19.021Z,15.17
2023-02-05T04:04:46.209Z,11.30
2023-02-05T04:07:13.579Z,10.97
2023-02-05T04:09:40.619Z,10.30
2023-02-05T04:12:07.808Z,12.27
2023-02-05T04:14:34.854Z,11.33
2023-02-05T04:17:01.968Z,11.10
2023-02-05T04:19:29.068Z,11.87
2023-02-05T04:21:56.048Z,9.47
2023-02-05T04:24:23.193Z,15.53
2023-02-05T04:26:51.055Z,18.80
2023-02-05T04:29:18.042Z,21.10
2023-02-05T04:31:45.133Z,21.73
2023-02-05T04:34:12.347Z,18.93
2023-02-05T04:36:39.680Z,21.97
2023-02-05T04:39:06.729Z,21.93
2023-02-05T04:41:33.873Z,23.53
2023-02-05T04:44:00.872Z,20.30
2023-02-05T04:46:27.869Z,18.20
2023-02-05T04:48:54.875Z,21.63
2023-02-05T04:51:21.879Z,15.37
2023-02-05T04:53:48.893Z,17.90
2023-02-05T04:56:18.041Z,18.23
2023-02-05T04:58:46.216Z,16.70
2023-02-05T05:01:20.265Z,17.67
2023-02-05T05:03:47.938Z,14.93
2023-02-05T05:06:17.648Z,16.60
2023-02-05T05:08:44.989Z,12.40
2023-02-05T05:11:16.241Z,13.13
2023-02-05T05:13:44.192Z,14.17
2023-02-05T05:16:12.344Z,17.87
2023-02-05T05:18:40.456Z,12.67
2023-02-05T05:21:08.427Z,14.77
2023-02-05T05:23:36.780Z,12.33
2023-02-05T05:26:09.714Z,10.83
2023-02-05T05:28:37.513Z,10.57
2023-02-05T05:31:11.424Z,11.97
2023-02-05T05:33:38.907Z,9.23
2023-02-05T05:36:07.253Z,8.80
2023-02-05T05:38:34.645Z,9.00
2023-02-05T05:41:20.488Z,8.27
2023-02-05T05:43:47.793Z,7.53
2023-02-05T05:46:33.720Z,11.27
2023-02-05T05:49:02.524Z,9.70
2023-02-05T05:51:31.143Z,9.13
2023-02-05T05:53:58.261Z,7.93
2023-02-05T05:56:25.320Z,8.73
2023-02-05T05:58:52.738Z,11.77
2023-02-05T06:01:22.104Z,15.63
2023-02-05T06:03:50.384Z,14.47
2023-02-05T06:06:17.521Z,13.30
2023-02-05T06:08:44.666Z,17.20
2023-02-05T06:11:12.142Z,19.90
2023-02-05T06:13:39.245Z,20.73
2023-02-05T06:16:06.795Z,18.93
2023-02-05T06:18:34.098Z,22.67
2023-02-05T06:21:02.278Z,17.73
2023-02-05T06:23:29.352Z,21.17
2023-02-05T06:25:56.364Z,24.17
2023-02-05T06:28:23.375Z,27.43
2023-02-05T06:30:50.674Z,17.63
2023-02-05T06:33:17.746Z,21.63
2023-02-05T06:35:44.777Z,18.20
2023-02-05T06:38:11.786Z,16.40
2023-02-05T06:40:38.907Z,20.37
2023-02-05T06:43:06.182Z,25.27
2023-02-05T06:45:33.515Z,18.23
2023-02-05T06:48:01.545Z,18.77
2023-02-05T06:50:28.568Z,17.20
2023-02-05T06:52:55.667Z,18.07
2023-02-05T06:55:22.831Z,20.03
2023-02-05T06:57:49.919Z,15.97
2023-02-05T07:00:17.576Z,14.20
2023-02-05T07:02:44.758Z,17.73
2023-02-05T07:05:11.862Z,13.10
2023-02-05T07:07:39.752Z,14.87
2023-02-05T07:10:07.122Z,14.13
2023-02-05T07:12:34.295Z,15.30
2023-02-05T07:15:01.382Z,12.93
2023-02-05T07:17:28.428Z,16.17
2023-02-05T07:19:55.525Z,19.17
2023-02-05T07:22:22.617Z,23.70
2023-02-05T07:24:49.651Z,19.77
2023-02-05T07:27:16.936Z,25.33
2023-02-05T07:29:43.954Z,25.70
2023-02-05T07:32:11.148Z,20.60
2023-02-05T07:34:38.446Z,18.33
2023-02-05T07:37:05.481Z,15.97
2023-02-05T07:39:33.490Z,13.90
2023-02-05T07:42:01.235Z,19.73
2023-02-05T07:44:28.340Z,15.53
2023-02-05T07:46:55.634Z,14.53
2023-02-05T07:49:23.102Z,11.77
2023-02-05T07:51:50.097Z,15.60
2023-02-05T07:54:17.174Z,12.53
2023-02-05T07:56:44.234Z,10.97
2023-02-05T07:59:13.502Z,12.10
2023-02-05T08:01:40.640Z,11.40
2023-02-05T08:04:08.070Z,13.07
2023-02-05T08:06:35.499Z,11.47
2023-02-05T08:09:02.759Z,11.80
2023-02-05T08:11:32.307Z,12.80
2023-02-05T08:14:00.638Z,11.27
2023-02-05T08:16:27.740Z,11.20
2023-02-05T08:18:54.775Z,13.30
2023-02-05T08:21:22.050Z,9.90
2023-02-05T08:23:49.685Z,11.43
2023-02-05T08:26:17.933Z,14.47
2023-02-05T08:28:46.088Z,14.73
2023-02-05T08:31:17.572Z,15.20
2023-02-05T08:33:45.836Z,12.17
2023-02-05T08:36:12.853Z,14.07
2023-02-05T08:38:39.858Z,14.70
2023-02-05T08:41:12.809Z,13.60
2023-02-05T08:43:46.822Z,12.57
2023-02-05T08:46:17.679Z,12.73
2023-02-05T08:48:45.290Z,14.40
2023-02-05T08:51:15.189Z,12.03
2023-02-05T08:53:42.806Z,11.17
2023-02-05T08:56:10.804Z,15.57
2023-02-05T08:58:39.254Z,9.97
2023-02-05T09:01:15.305Z,10.50
2023-02-05T09:03:42.927Z,10.77
2023-02-05T09:06:15.146Z,12.00
2023-02-05T09:08:42.918Z,10.80
2023-02-05T09:11:10.813Z,13.17
2023-02-05T09:13:38.445Z,12.47
2023-02-05T09:16:05.706Z,12.10
2023-02-05T09:18:32.694Z,13.30
2023-02-05T09:20:59.748Z,14.93
2023-02-05T09:23:26.802Z,14.60
2023-02-05T09:25:53.878Z,14.37
2023-02-05T09:28:20.904Z,13.53
2023-02-05T09:30:48.004Z,17.13
2023-02-05T09:33:15.070Z,14.10
2023-02-05T09:35:43.029Z,18.60
2023-02-05T09:38:14.759Z,17.13
2023-02-05T09:41:01.609Z,20.07
2023-02-05T09:43:57.782Z,17.67
2023-02-05T09:46:49.507Z,10.57
2023-02-05T09:49:42.347Z,9.10
2023-02-05T09:52:19.698Z,7.13
2023-02-05T09:55:19.724Z,10.57
2023-02-05T09:57:46.797Z,11.57
2023-02-05T10:00:43.778Z,14.50
2023-02-05T10:03:28.616Z,9.10
2023-02-05T10:06:11.284Z,12.53
2023-02-05T10:09:05.370Z,8.57
2023-02-05T10:11:52.839Z,8.03
2023-02-05T10:14:26.729Z,10.17
2023-02-05T10:17:33.770Z,6.03
2023-02-05T10:20:35.363Z,7.37
2023-02-05T10:23:16.999Z,6.77
2023-02-05T10:26:15.812Z,7.60
2023-02-05T10:28:55.517Z,6.63
2023-02-05T10:31:42.261Z,5.67
2023-02-05T10:34:36.445Z,6.80
2023-02-05T10:37:12.100Z,5.43
2023-02-05T10:39:39.491Z,6.17
2023-02-05T10:42:40.992Z,11.40
2023-02-05T10:45:21.325Z,9.03
2023-02-05T10:48:25.532Z,10.80
2023-02-05T10:50:58.179Z,7.17
2023-02-05T10:53:27.613Z,17.13
2023-02-05T10:55:56.447Z,12.93
2023-02-05T10:58:52.002Z,10.80
2023-02-05T11:01:32.780Z,10.30
2023-02-05T11:04:15.190Z,9.27
2023-02-05T11:06:51.473Z,8.40
2023-02-05T11:09:24.248Z,10.17
2023-02-05T11:12:00.842Z,10.33
2023-02-05T11:14:36.332Z,13.13
2023-02-05T11:17:37.559Z,11.80
2023-02-05T11:20:17.470Z,13.27
2023-02-05T11:22:46.332Z,13.30
2023-02-05T11:25:21.425Z,13.13
2023-02-05T11:28:04.074Z,15.07
2023-02-05T11:30:50.114Z,15.53
2023-02-05T11:33:27.780Z,13.13
2023-02-05T11:36:21.551Z,9.23
2023-02-05T11:38:57.805Z,12.80
2023-02-05T11:41:31.136Z,12.40
2023-02-05T11:44:01.003Z,10.20
2023-02-05T11:46:35.058Z,12.40
2023-02-05T11:49:05.089Z,8.07
2023-02-05T11:51:52.995Z,11.00
2023-02-05T11:54:34.312Z,11.73
2023-02-05T11:57:22.250Z,10.20
2023-02-05T12:00:20.277Z,9.70
2023-02-05T12:02:53.879Z,9.77
2023-02-05T12:05:28.874Z,15.90
2023-02-05T12:08:03.218Z,13.93
2023-02-05T12:11:53.132Z,9.43
2023-02-05T12:14:43.878Z,8.47
2023-02-05T12:17:19.830Z,9.30
2023-02-05T12:20:17.849Z,11.50
2023-02-05T12:23:22.608Z,10.00
2023-02-05T12:26:30.708Z,10.00
2023-02-05T12:29:23.803Z,10.17
2023-02-05T12:32:21.524Z,9.73
2023-02-05T12:35:03.936Z,10.70
2023-02-05T12:38:31.468Z,9.40
2023-02-05T12:41:20.982Z,7.53
2023-02-05T12:43:50.214Z,5.30
2023-02-05T12:46:57.178Z,10.43
2023-02-05T12:49:42.984Z,5.03
2023-02-05T12:52:39.108Z,5.63
2023-02-05T12:55:41.001Z,9.60
2023-02-05T12:58:13.088Z,7.00
2023-02-05T13:00:46.035Z,5.70
2023-02-05T13:03:36.466Z,5.73
2023-02-05T13:06:14.470Z,9.40
2023-02-05T13:08:52.141Z,8.63
2023-02-05T13:11:36.411Z,8.97
2023-02-05T13:14:52.863Z,7.20
2023-02-05T13:17:31.133Z,9.97
2023-02-05T13:20:50.783Z,8.93
2023-02-05T13:23:37.530Z,7.57
2023-02-05T13:26:27.568Z,7.20
2023-02-05T13:28:59.688Z,5.67
2023-02-05T13:31:49.000Z,8.97
2023-02-05T13:34:17.810Z,7.77
2023-02-05T13:37:15.326Z,8.13
2023-02-05T13:40:29.709Z,5.67
2023-02-05T13:43:07.048Z,4.73
2023-02-05T13:45:56.597Z,5.53
2023-02-05T13:48:42.228Z,5.97
2023-02-05T13:51:38.983Z,4.77
2023-02-05T13:54:33.592Z,5.53
2023-02-05T13:57:48.278Z,6.30
2023-02-05T14:00:16.955Z,6.63
2023-02-05T14:02:49.465Z,8.40
2023-02-05T14:05:27.334Z,7.83
2023-02-05T14:07:57.763Z,5.90
2023-02-05T14:10:32.395Z,9.70
2023-02-05T14:13:25.462Z,10.20
2023-02-05T14:15:57.559Z,6.20
2023-02-05T14:18:48.526Z,8.80
2023-02-05T14:21:30.503Z,7.80
2023-02-05T14:24:25.369Z,7.53
2023-02-05T14:26:59.638Z,10.70
2023-02-05T14:29:48.205Z,9.50
2023-02-05T14:32:27.494Z,17.17
2023-02-05T14:35:40.104Z,7.20
2023-02-05T14:38:33.536Z,9.33
2023-02-05T14:41:13.768Z,7.43
2023-02-05T14:43:44.200Z,6.97
2023-02-05T14:46:44.477Z,6.73
2023-02-05T14:49:24.961Z,9.17
2023-02-05T14:52:17.864Z,9.63
2023-02-05T14:55:02.397Z,7.17
2023-02-05T14:57:54.424Z,8.30
2023-02-05T15:00:26.168Z,10.37
2023-02-05T15:03:05.981Z,10.10
2023-02-05T15:05:53.957Z,8.97
2023-02-05T15:08:36.006Z,11.40
2023-02-05T15:11:22.960Z,14.10
2023-02-05T15:14:19.502Z,17.93
2023-02-05T15:17:07.376Z,20.20
2023-02-05T15:19:51.625Z,18.53
2023-02-05T15:22:36.735Z,24.17
2023-02-05T15:25:16.797Z,23.70
2023-02-05T15:27:54.392Z,24.63
2023-02-05T15:30:28.414Z,22.07
2023-02-05T15:33:08.401Z,18.23
2023-02-05T15:35:37.689Z,14.60
2023-02-05T15:38:27.380Z,13.50
2023-02-05T15:40:54.663Z,14.90
2023-02-05T15:43:27.149Z,11.53
2023-02-05T15:46:05.518Z,11.73
2023-02-05T15:48:35.471Z,10.10
2023-02-05T15:51:05.296Z,8.87
2023-02-05T15:53:43.027Z,9.53
2023-02-05T15:56:14.825Z,8.67
2023-02-05T15:58:54.923Z,12.23
2023-02-05T16:01:31.777Z,9.13
2023-02-05T16:03:59.354Z,9.70
2023-02-05T16:06:30.084Z,9.30
2023-02-05T16:08:57.734Z,8.37
2023-02-05T16:11:35.340Z,18.47
2023-02-05T16:14:15.298Z,19.77
2023-02-05T16:17:19.583Z,13.67
2023-02-05T16:20:19.956Z,12.97
2023-02-05T16:23:09.145Z,13.50
2023-02-05T16:25:47.305Z,10.60
2023-02-05T16:28:23.284Z,9.73
2023-02-05T16:30:55.266Z,10.03
2023-02-05T16:33:28.016Z,12.87
2023-02-05T16:35:56.587Z,10.67
2023-02-05T16:38:23.788Z,10.53
2023-02-05T16:40:54.932Z,8.83
2023-02-05T16:43:39.653Z,8.57
2023-02-05T16:46:06.554Z,8.17
2023-02-05T16:48:46.807Z,8.53
2023-02-05T16:51:45.359Z,8.87
2023-02-05T16:54:12.345Z,8.60
2023-02-05T16:57:04.832Z,8.20
2023-02-05T17:00:06.462Z,10.27
2023-02-05T17:02:41.778Z,11.07
2023-02-05T17:05:36.484Z,10.93
2023-02-05T17:08:06.976Z,11.17
2023-02-05T17:10:59.576Z,14.53
2023-02-05T17:13:32.369Z,15.13
2023-02-05T17:16:29.892Z,15.60
2023-02-05T17:18:57.881Z,16.03
2023-02-05T17:21:27.149Z,17.63
2023-02-05T17:23:57.167Z,15.50
2023-02-05T17:26:26.194Z,16.70
2023-02-05T17:28:59.961Z,14.53
2023-02-05T17:31:29.231Z,14.23
2023-02-05T17:33:58.994Z,21.50
2023-02-05T17:36:26.665Z,17.77
2023-02-05T17:38:54.411Z,15.27
2023-02-05T17:41:46.417Z,16.13
2023-02-05T17:44:17.856Z,18.87
2023-02-05T17:46:45.213Z,15.03
2023-02-05T17:49:12.302Z,16.73
2023-02-05T17:51:42.693Z,18.40
2023-02-05T17:54:19.833Z,15.03
2023-02-05T17:56:48.409Z,20.13
2023-02-05T17:59:19.925Z,16.43
2023-02-05T18:01:48.980Z,19.43
2023-02-05T18:04:18.562Z,20.97
2023-02-05T18:06:49.037Z,18.10
2023-02-05T18:09:16.582Z,20.80
2023-02-05T18:11:43.585Z,20.50
2023-02-05T18:14:11.025Z,21.40
2023-02-05T18:16:38.382Z,19.73
2023-02-05T18:19:05.740Z,23.80
2023-02-05T18:21:33.068Z,24.43
2023-02-05T18:24:00.165Z,21.67
2023-02-05T18:26:27.233Z,21.20
2023-02-05T18:28:54.610Z,22.80
2023-02-05T18:31:21.979Z,20.73
2023-02-05T18:33:51.578Z,17.83
2023-02-05T18:36:18.668Z,23.80
2023-02-05T18:38:45.871Z,20.97
2023-02-05T18:41:25.905Z,19.37
2023-02-05T18:43:56.675Z,24.10
2023-02-05T18:46:25.117Z,18.73
2023-02-05T18:48:54.421Z,18.07
2023-02-05T18:51:23.120Z,20.50
2023-02-05T18:53:50.758Z,21.53
2023-02-05T18:56:27.084Z,19.57
2023-02-05T18:59:02.201Z,32.70
2023-02-05T19:01:32.007Z,28.83
2023-02-05T19:04:07.856Z,27.53
2023-02-05T19:06:35.271Z,28.30
2023-02-05T19:09:03.514Z,30.43
2023-02-05T19:11:31.387Z,28.67
2023-02-05T19:14:04.926Z,32.87
2023-02-05T19:16:34.602Z,36.07
2023-02-05T19:19:03.105Z,34.83
2023-02-05T19:21:31.530Z,34.63
2023-02-05T19:24:05.480Z,28.37
2023-02-05T19:26:35.202Z,34.23
2023-02-05T19:29:09.052Z,34.20
2023-02-05T19:31:37.542Z,32.00
2023-02-05T19:34:05.857Z,27.03
2023-02-05T19:36:33.570Z,27.20
2023-02-05T19:39:02.575Z,30.47
2023-02-05T19:41:31.732Z,33.33
2023-02-05T19:44:02.373Z,30.50
2023-02-05T19:46:33.151Z,37.00
2023-02-05T19:49:05.049Z,35.10
2023-02-05T19:51:32.212Z,31.83
2023-02-05T19:54:03.097Z,36.40
2023-02-05T19:56:30.920Z,31.23
2023-02-05T19:58:58.064Z,36.17
2023-02-05T20:01:32.098Z,36.50
2023-02-05T20:04:11.856Z,35.83
2023-02-05T20:06:40.461Z,34.77
2023-02-05T20:09:10.877Z,29.33
2023-02-05T20:11:43.049Z,33.40
2023-02-05T20:14:11.033Z,34.00
2023-02-05T20:16:40.402Z,34.33
2023-02-05T20:19:10.521Z,34.77
2023-02-05T20:21:38.591Z,40.67
2023-02-05T20:24:07.491Z,35.30
2023-02-05T20:26:36.155Z,35.50
2023-02-05T20:29:23.275Z,38.60
2023-02-05T20:31:52.401Z,37.37
2023-02-05T20:34:30.437Z,35.00
2023-02-05T20:37:04.801Z,36.40
2023-02-05T20:39:34.864Z,37.63
2023-02-05T20:42:02.414Z,37.67
2023-02-05T20:44:33.926Z,41.97
2023-02-05T20:47:01.019Z,42.60
2023-02-05T20:49:28.631Z,37.67
2023-02-05T20:51:55.768Z,34.70
2023-02-05T20:54:23.595Z,39.43
2023-02-05T20:56:57.017Z,39.30
2023-02-05T20:59:24.785Z,36.77
2023-02-05T21:01:52.352Z,37.13
2023-02-05T21:04:22.416Z,38.10
2023-02-05T21:06:49.803Z,45.03
2023-02-05T21:09:17.281Z,33.33
2023-02-05T21:11:44.326Z,39.80
2023-02-05T21:14:11.652Z,39.40
2023-02-05T21:16:40.082Z,38.30
2023-02-05T21:19:08.786Z,38.50
2023-02-05T21:21:37.366Z,34.73
2023-02-05T21:24:08.826Z,39.00
2023-02-05T21:26:47.254Z,45.60
2023-02-05T21:29:18.272Z,41.50
2023-02-05T21:31:50.141Z,44.00
2023-02-05T21:34:21.844Z,39.87
2023-02-05T21:36:49.950Z,42.17
2023-02-05T21:39:20.053Z,42.17
2023-02-05T21:41:47.801Z,40.70
2023-02-05T21:44:14.915Z,45.73
2023-02-05T21:46:42.155Z,41.63
2023-02-05T21:49:11.579Z,42.40
2023-02-05T21:51:38.699Z,44.83
2023-02-05T21:54:06.783Z,42.63
2023-02-05T21:56:42.530Z,43.10
2023-02-05T21:59:11.936Z,49.27
2023-02-05T22:01:39.758Z,47.83
2023-02-05T22:04:14.732Z,48.17
2023-02-05T22:06:42.521Z,51.80
2023-02-05T22:09:13.550Z,51.23
2023-02-05T22:11:41.302Z,55.60
2023-02-05T22:14:10.321Z,48.53
2023-02-05T22:16:39.278Z,48.73
2023-02-05T22:19:07.970Z,49.47
2023-02-05T22:21:41.536Z,53.90
2023-02-05T22:24:13.250Z,48.40
2023-02-05T22:26:41.566Z,46.73
2023-02-05T22:29:12.042Z,48.57
2023-02-05T22:31:39.069Z,43.60
2023-02-05T22:34:06.564Z,45.70
2023-02-05T22:36:35.595Z,50.20
2023-02-05T22:39:05.006Z,50.17
2023-02-05T22:41:35.997Z,40.70
2023-02-05T22:44:05.425Z,48.93
2023-02-05T22:46:37.213Z,45.97
2023-02-05T22:49:05.044Z,51.40
2023-02-05T22:51:37.299Z,48.97
2023-02-05T22:54:04.691Z,48.27
2023-02-05T22:56:32.914Z,49.30
2023-02-05T22:59:02.960Z,50.50
2023-02-05T23:01:34.167Z,42.97
2023-02-05T23:04:03.781Z,44.10
2023-02-05T23:06:36.166Z,49.83
2023-02-05T23:09:11.239Z,49.97
2023-02-05T23:11:38.662Z,53.23
2023-02-05T23:14:07.848Z,47.90
2023-02-05T23:16:39.177Z,45.90
2023-02-05T23:19:20.018Z,54.80
2023-02-05T23:21:48.790Z,47.73
2023-02-05T23:24:17.090Z,51.40
2023-02-05T23:26:48.024Z,55.43
2023-02-05T23:29:16.796Z,52.77
2023-02-05T23:31:43.877Z,55.03
2023-02-05T23:34:12.075Z,53.57
2023-02-05T23:36:39.507Z,52.57
2023-02-05T23:39:06.629Z,55.03
2023-02-05T23:41:36.981Z,54.23
2023-02-05T23:44:08.418Z,50.87
2023-02-05T23:46:36.917Z,60.57
2023-02-05T23:49:05.210Z,50.53
2023-02-05T23:51:32.925Z,58.47
2023-02-05T23:54:00.333Z,55.13
2023-02-05T23:56:27.693Z,60.13
2023-02-05T23:58:55.037Z,59.70
